Time;durP1;ratioP1;P1;durP2;ratioP2;P2;SDS_P1;SDS_P2;PMS_P1;PMS_P2;Temp;Humidity;BMP_temperature;BMP_pressure;BME280_temperature;BME280_humidity;BME280_pressure;Samples;Min_cycle;Max_cycle;Signal;HPM_P1;HPM_P2
2023/08/27 00:01:30;;;;;;;3.08;2.28;;;;;;;12.85;100.00;100843.41;5040393;28;20060;-69
2023/08/27 00:03:56;;;;;;;3.13;2.63;;;;;;;12.86;100.00;100845.13;5057171;28;20421;-68
2023/08/27 00:06:21;;;;;;;2.92;2.63;;;;;;;12.84;100.00;100847.03;5047543;28;20032;-69
2023/08/27 00:08:47;;;;;;;5.65;3.22;;;;;;;12.82;100.00;100830.25;5041283;28;20043;-70
2023/08/27 00:11:12;;;;;;;4.90;2.55;;;;;;;12.84;100.00;100840.84;5043642;28;20179;-68
2023/08/27 00:13:37;;;;;;;3.67;2.70;;;;;;;12.85;100.00;100832.72;5043694;28;20032;-69
2023/08/27 00:16:05;;;;;;;4.57;2.95;;;;;;;12.91;100.00;100810.97;5043895;28;20531;-69
2023/08/27 00:18:31;;;;;;;3.42;3.13;;;;;;;13.02;100.00;100807.66;5038952;28;20082;-69
2023/08/27 00:20:56;;;;;;;4.97;3.30;;;;;;;13.11;100.00;100792.88;5040652;28;20033;-68
2023/08/27 00:23:22;;;;;;;4.82;3.13;;;;;;;13.14;100.00;100787.34;5036071;28;20029;-68
2023/08/27 00:25:47;;;;;;;4.60;3.13;;;;;;;13.00;100.00;100782.88;5041858;28;20063;-68
2023/08/27 00:28:13;;;;;;;3.17;2.70;;;;;;;13.03;100.00;100777.31;5030787;28;20496;-68
2023/08/27 00:30:40;;;;;;;4.78;2.80;;;;;;;12.85;100.00;100767.78;5040722;28;20068;-68
2023/08/27 00:33:06;;;;;;;3.05;2.60;;;;;;;12.86;100.00;100754.31;5035338;28;20029;-68
2023/08/27 00:35:31;;;;;;;3.20;2.75;;;;;;;12.77;100.00;100749.53;5036218;28;20151;-68
2023/08/27 00:37:57;;;;;;;3.15;2.83;;;;;;;12.74;100.00;100746.19;5037307;28;20713;-68
2023/08/27 00:40:22;;;;;;;3.28;2.72;;;;;;;12.80;100.00;100746.69;5039705;28;20427;-68
2023/08/27 00:42:47;;;;;;;3.33;2.58;;;;;;;12.74;100.00;100744.38;5053305;28;20087;-68
2023/08/27 00:45:13;;;;;;;2.95;2.67;;;;;;;12.74;100.00;100738.19;5036735;28;20072;-68
2023/08/27 00:47:41;;;;;;;3.58;2.60;;;;;;;12.85;100.00;100741.91;5037589;28;20028;-68
2023/08/27 00:50:11;;;;;;;2.88;2.67;;;;;;;12.82;100.00;100726.06;5042293;28;20024;-68
2023/08/27 00:52:36;;;;;;;3.08;2.78;;;;;;;13.02;100.00;100732.00;5035687;28;20127;-69
2023/08/27 00:55:03;;;;;;;3.88;3.00;;;;;;;12.87;100.00;100734.66;5054206;28;20444;-70
2023/08/27 00:57:29;;;;;;;4.15;2.72;;;;;;;12.94;100.00;100744.00;5038873;28;20032;-69
2023/08/27 00:59:56;;;;;;;2.97;2.67;;;;;;;13.04;100.00;100736.28;5044052;28;20183;-69
2023/08/27 01:02:21;;;;;;;3.53;2.75;;;;;;;13.00;100.00;100718.75;5045401;28;20029;-69
2023/08/27 01:04:46;;;;;;;2.92;2.72;;;;;;;13.17;100.00;100715.00;5047435;28;20028;-69
2023/08/27 01:07:23;;;;;;;3.58;2.97;;;;;;;13.16;100.00;100716.78;5041238;28;20036;-69
2023/08/27 01:10:22;;;;;;;5.32;3.55;;;;;;;13.20;100.00;100718.31;5044910;28;20115;-69
2023/08/27 01:13:10;;;;;;;3.17;2.88;;;;;;;13.09;100.00;100717.31;5049916;28;20075;-69
2023/08/27 01:15:36;;;;;;;3.05;2.60;;;;;;;12.98;100.00;100717.09;5043992;28;20309;-68
2023/08/27 01:18:03;;;;;;;3.63;2.90;;;;;;;12.83;100.00;100719.81;5036965;28;20578;-68
2023/08/27 01:20:30;;;;;;;2.78;2.58;;;;;;;12.71;100.00;100702.72;5053737;28;20045;-69
2023/08/27 01:22:55;;;;;;;4.97;2.70;;;;;;;12.79;100.00;100718.28;5039580;28;20033;-68
2023/08/27 01:25:27;;;;;;;2.55;2.35;;;;;;;12.75;100.00;100716.75;5039241;28;20029;-68
2023/08/27 01:28:04;;;;;;;2.88;2.40;;;;;;;12.60;100.00;100701.66;5043262;28;20025;-68
2023/08/27 01:30:36;;;;;;;4.68;2.50;;;;;;;12.60;100.00;100715.00;5040218;28;20668;-69
2023/08/27 01:33:15;;;;;;;3.03;2.60;;;;;;;12.62;100.00;100718.44;5046213;28;20154;-68
2023/08/27 01:35:41;;;;;;;4.63;3.20;;;;;;;12.55;100.00;100712.63;5045376;28;20226;-67
2023/08/27 01:38:06;;;;;;;2.50;2.30;;;;;;;12.59;100.00;100716.81;5040815;28;20032;-67
2023/08/27 01:40:32;;;;;;;2.80;2.60;;;;;;;12.59;100.00;100710.63;5040030;28;20716;-67
2023/08/27 01:42:57;;;;;;;3.28;2.70;;;;;;;12.66;100.00;100718.13;5043389;28;20024;-67
2023/08/27 01:45:22;;;;;;;3.05;2.72;;;;;;;12.68;100.00;100724.25;5046350;28;20021;-67
2023/08/27 01:47:48;;;;;;;3.90;2.90;;;;;;;12.75;100.00;100719.41;5040747;28;20111;-68
2023/08/27 01:50:13;;;;;;;4.07;3.15;;;;;;;12.78;100.00;100713.00;5043038;28;20041;-68
2023/08/27 01:52:38;;;;;;;3.10;2.83;;;;;;;12.79;100.00;100714.72;5046842;28;20183;-67
2023/08/27 01:55:04;;;;;;;2.97;2.70;;;;;;;12.85;100.00;100715.19;5037917;28;20025;-68
2023/08/27 01:57:30;;;;;;;3.03;2.70;;;;;;;12.87;100.00;100723.97;5038663;28;20036;-68
2023/08/27 01:59:55;;;;;;;2.60;2.40;;;;;;;12.84;100.00;100717.97;5036987;28;20033;-68
2023/08/27 02:02:20;;;;;;;2.65;2.45;;;;;;;12.87;100.00;100707.94;5053650;28;20033;-69
2023/08/27 02:04:46;;;;;;;2.80;2.60;;;;;;;12.86;100.00;100705.38;5038697;28;20141;-68
2023/08/27 02:07:11;;;;;;;3.72;2.53;;;;;;;12.86;100.00;100706.22;5038870;28;20356;-67
2023/08/27 02:09:37;;;;;;;3.00;2.42;;;;;;;12.85;100.00;100704.53;5040510;28;20224;-68
2023/08/27 02:12:04;;;;;;;3.47;2.75;;;;;;;12.90;100.00;100713.09;5052500;28;20087;-70
2023/08/27 02:14:29;;;;;;;4.20;2.80;;;;;;;12.87;100.00;100707.94;5042965;28;20025;-68
2023/08/27 02:16:54;;;;;;;2.60;2.30;;;;;;;12.87;100.00;100713.28;5040396;28;20035;-68
2023/08/27 02:19:21;;;;;;;3.20;2.90;;;;;;;12.89;100.00;100710.53;5037920;28;20028;-67
2023/08/27 02:21:46;;;;;;;3.15;2.83;;;;;;;12.85;100.00;100723.22;5045407;28;20119;-66
2023/08/27 02:24:11;;;;;;;3.38;2.83;;;;;;;12.84;100.00;100717.97;5044342;28;20215;-68
2023/08/27 02:26:37;;;;;;;3.05;2.85;;;;;;;12.67;100.00;100703.00;5047807;28;20112;-68
2023/08/27 02:29:02;;;;;;;4.57;2.92;;;;;;;12.75;100.00;100713.19;5042733;28;20399;-67
2023/08/27 02:31:28;;;;;;;3.60;3.30;;;;;;;12.77;100.00;100722.84;5042946;28;20245;-68
2023/08/27 02:33:53;;;;;;;3.90;3.60;;;;;;;12.79;100.00;100714.72;5053749;28;20075;-67
2023/08/27 02:36:18;;;;;;;4.13;3.33;;;;;;;12.74;100.00;100696.31;5040510;28;20037;-67
2023/08/27 02:38:44;;;;;;;3.80;3.30;;;;;;;12.76;100.00;100705.09;5041584;28;20051;-67
2023/08/27 02:41:10;;;;;;;4.20;3.88;;;;;;;12.72;100.00;100724.94;5043914;28;20025;-67
2023/08/27 02:43:35;;;;;;;5.38;4.13;;;;;;;12.73;100.00;100717.78;5038980;28;20025;-67
2023/08/27 02:46:01;;;;;;;8.80;4.50;;;;;;;12.63;100.00;100726.38;5043375;28;20043;-68
2023/08/27 02:48:26;;;;;;;5.22;4.20;;;;;;;12.66;100.00;100712.78;5040515;28;20110;-68
2023/08/27 02:50:51;;;;;;;6.93;4.30;;;;;;;12.69;100.00;100725.97;5039819;28;20053;-68
2023/08/27 02:53:17;;;;;;;7.00;3.55;;;;;;;12.67;100.00;100727.03;5035599;28;20033;-68
2023/08/27 02:55:42;;;;;;;5.78;3.95;;;;;;;12.64;100.00;100725.41;5035873;28;20021;-68
2023/08/27 02:58:07;;;;;;;10.98;4.93;;;;;;;12.74;100.00;100714.16;5040775;28;20033;-68
2023/08/27 03:00:33;;;;;;;10.32;4.90;;;;;;;12.67;100.00;100695.00;5039543;28;20566;-68
2023/08/27 03:02:58;;;;;;;8.10;4.50;;;;;;;12.64;100.00;100703.19;5038600;28;20039;-68
2023/08/27 03:05:23;;;;;;;7.35;3.78;;;;;;;12.64;100.00;100708.53;5037404;28;20024;-67
2023/08/27 03:07:49;;;;;;;4.97;4.05;;;;;;;12.70;100.00;100703.66;5031404;28;20021;-68
2023/08/27 03:10:14;;;;;;;5.90;3.58;;;;;;;12.60;100.00;100723.00;5040688;28;20108;-68
2023/08/27 03:12:40;;;;;;;6.45;4.30;;;;;;;12.59;100.00;100713.28;5044598;28;20076;-68
2023/08/27 03:15:06;;;;;;;5.00;3.97;;;;;;;12.55;100.00;100715.28;5055435;28;20460;-68
2023/08/27 03:17:32;;;;;;;5.15;3.40;;;;;;;12.46;100.00;100719.38;5035254;28;20035;-69
2023/08/27 03:19:57;;;;;;;5.70;3.78;;;;;;;12.50;100.00;100724.50;5037969;28;20036;-69
2023/08/27 03:22:23;;;;;;;6.97;4.05;;;;;;;12.53;100.00;100721.66;5038400;28;20013;-68
2023/08/27 03:24:48;;;;;;;5.43;3.88;;;;;;;12.46;100.00;100738.06;5037706;28;20304;-69
2023/08/27 03:27:13;;;;;;;5.75;3.90;;;;;;;12.55;100.00;100743.81;5039889;28;20387;-68
2023/08/27 03:29:39;;;;;;;5.75;4.07;;;;;;;12.52;100.00;100733.31;5041538;28;20061;-66
2023/08/27 03:32:05;;;;;;;6.47;3.85;;;;;;;12.54;100.00;100737.59;5045603;28;20700;-68
2023/08/27 03:34:30;;;;;;;6.72;3.85;;;;;;;12.54;100.00;100724.25;5041809;28;20039;-67
2023/08/27 03:36:56;;;;;;;7.30;4.20;;;;;;;12.53;100.00;100732.34;5039187;28;20247;-69
2023/08/27 03:39:22;;;;;;;7.82;4.57;;;;;;;12.68;100.00;100721.59;5041743;28;20510;-69
2023/08/27 03:41:47;;;;;;;7.68;4.70;;;;;;;12.65;100.00;100708.41;5038518;28;20510;-68
2023/08/27 03:44:13;;;;;;;8.60;5.07;;;;;;;12.58;100.00;100701.75;5041345;28;20028;-69
2023/08/27 03:46:41;;;;;;;8.30;5.10;;;;;;;12.64;100.00;100705.84;5042522;28;20435;-68
2023/08/27 03:49:06;;;;;;;10.57;5.50;;;;;;;12.70;100.00;100689.44;5041554;28;20027;-68
2023/08/27 03:51:32;;;;;;;8.35;6.00;;;;;;;12.77;100.00;100690.78;5043127;28;20056;-68
2023/08/27 03:53:59;;;;;;;11.95;6.47;;;;;;;12.84;100.00;100688.59;5036636;28;20440;-68
2023/08/27 03:56:24;;;;;;;9.73;6.25;;;;;;;12.85;100.00;100687.63;5037327;28;20492;-68
2023/08/27 03:58:50;;;;;;;10.95;6.78;;;;;;;12.99;100.00;100681.41;5044453;28;20036;-69
2023/08/27 04:01:15;;;;;;;10.48;6.38;;;;;;;12.95;100.00;100673.59;5040118;28;20175;-68
2023/08/27 04:03:41;;;;;;;12.90;6.25;;;;;;;12.93;100.00;100674.66;5037013;28;20060;-69
2023/08/27 04:06:07;;;;;;;11.70;6.18;;;;;;;13.00;100.00;100677.78;5039869;28;20100;-68
2023/08/27 04:08:33;;;;;;;10.15;5.85;;;;;;;13.00;100.00;100683.13;5039297;28;20021;-68
2023/08/27 04:10:58;;;;;;;11.65;6.65;;;;;;;13.04;100.00;100674.84;5042998;28;20028;-68
2023/08/27 04:13:23;;;;;;;8.98;5.60;;;;;;;12.99;100.00;100676.06;5037386;28;20021;-68
2023/08/27 04:16:03;;;;;;;10.50;5.75;;;;;;;13.00;100.00;100680.44;5037878;28;20080;-67
2023/08/27 04:18:28;;;;;;;10.50;5.80;;;;;;;13.04;100.00;100677.50;5039881;28;20135;-67
2023/08/27 04:20:54;;;;;;;7.75;5.45;;;;;;;13.05;100.00;100686.38;5034163;28;20039;-68
2023/08/27 04:23:20;;;;;;;6.63;4.32;;;;;;;12.93;100.00;100690.69;5041594;28;20189;-68
2023/08/27 04:25:46;;;;;;;7.22;4.82;;;;;;;12.82;100.00;100685.16;5036855;28;20107;-68
2023/08/27 04:28:12;;;;;;;8.20;5.15;;;;;;;12.83;100.00;100684.19;5041482;28;20462;-69
2023/08/27 04:30:38;;;;;;;7.72;5.30;;;;;;;12.86;100.00;100708.91;5038184;28;20021;-69
2023/08/27 04:33:05;;;;;;;7.65;5.25;;;;;;;12.87;100.00;100709.75;5042368;28;20103;-68
2023/08/27 04:35:31;;;;;;;7.28;5.55;;;;;;;12.80;100.00;100703.09;5041251;28;20032;-67
2023/08/27 04:37:56;;;;;;;7.55;5.35;;;;;;;12.90;100.00;100712.25;5060600;28;20126;-67
2023/08/27 04:40:21;;;;;;;10.82;6.15;;;;;;;12.80;100.00;100706.63;5039063;28;20029;-67
2023/08/27 04:42:47;;;;;;;10.88;6.05;;;;;;;12.82;100.00;100701.19;5044537;28;20028;-67
2023/08/27 04:45:12;;;;;;;9.35;6.25;;;;;;;12.74;100.00;100684.78;5039107;28;20021;-67
2023/08/27 04:47:38;;;;;;;8.98;5.68;;;;;;;12.74;100.00;100692.78;5043802;28;20048;-67
2023/08/27 04:50:04;;;;;;;13.82;6.53;;;;;;;12.74;100.00;100701.66;5042491;28;20024;-68
2023/08/27 04:52:30;;;;;;;8.65;5.95;;;;;;;12.74;100.00;100707.00;5036967;28;20546;-67
2023/08/27 04:54:55;;;;;;;11.25;7.22;;;;;;;12.72;100.00;100706.25;5036756;28;20041;-68
2023/08/27 04:57:21;;;;;;;10.93;6.93;;;;;;;12.78;100.00;100705.84;5041814;28;20052;-68
2023/08/27 04:59:46;;;;;;;11.57;7.32;;;;;;;12.75;100.00;100705.16;5043312;28;20090;-68
2023/08/27 05:02:11;;;;;;;11.75;7.65;;;;;;;12.68;100.00;100702.03;5052536;28;20024;-67
2023/08/27 05:04:37;;;;;;;11.05;7.60;;;;;;;12.67;100.00;100705.69;5040219;28;20091;-67
2023/08/27 05:07:02;;;;;;;10.02;7.28;;;;;;;12.67;100.00;100708.34;5041037;28;20626;-68
2023/08/27 05:09:27;;;;;;;9.48;6.97;;;;;;;12.63;100.00;100714.81;5040349;28;20347;-67
2023/08/27 05:11:53;;;;;;;12.75;7.97;;;;;;;12.59;100.00;100715.97;5038934;28;20029;-67
2023/08/27 05:14:18;;;;;;;10.50;8.15;;;;;;;12.58;100.00;100715.09;5045043;28;20430;-68
2023/08/27 05:16:44;;;;;;;10.75;8.65;;;;;;;12.60;100.00;100715.84;5038864;28;20033;-68
2023/08/27 05:19:09;;;;;;;11.23;8.27;;;;;;;12.47;100.00;100714.91;5038511;28;20029;-67
2023/08/27 05:21:35;;;;;;;11.23;8.40;;;;;;;12.56;100.00;100711.66;5058864;28;20028;-68
2023/08/27 05:24:00;;;;;;;10.60;8.35;;;;;;;12.63;100.00;100714.81;5042313;28;20036;-67
2023/08/27 05:26:25;;;;;;;11.32;9.10;;;;;;;12.63;100.00;100704.16;5043270;28;20491;-68
2023/08/27 05:28:51;;;;;;;9.40;8.10;;;;;;;12.57;100.00;100707.19;5045205;28;20471;-68
2023/08/27 05:31:16;;;;;;;11.82;8.20;;;;;;;12.69;100.00;100709.09;5045527;28;20333;-68
2023/08/27 05:33:42;;;;;;;11.63;8.70;;;;;;;12.77;100.00;100721.97;5044842;28;20810;-71
2023/08/27 05:36:07;;;;;;;12.25;8.80;;;;;;;12.81;100.00;100719.00;5052968;28;20036;-69
2023/08/27 05:38:32;;;;;;;9.18;7.43;;;;;;;12.81;100.00;100713.69;5034249;28;20419;-68
2023/08/27 05:40:58;;;;;;;13.23;9.50;;;;;;;12.89;100.00;100716.72;5044480;28;20521;-69
2023/08/27 05:43:24;;;;;;;12.88;8.93;;;;;;;12.90;100.00;100718.44;5039870;28;20025;-69
2023/08/27 05:45:49;;;;;;;11.18;8.30;;;;;;;12.91;100.00;100714.81;5038953;28;20031;-68
2023/08/27 05:48:15;;;;;;;11.55;8.93;;;;;;;13.09;100.00;100703.94;5036811;28;20025;-68
2023/08/27 05:50:44;;;;;;;10.10;8.88;;;;;;;13.05;100.00;100713.09;5044656;28;20472;-69
2023/08/27 05:53:11;;;;;;;11.32;8.68;;;;;;;13.07;100.00;100697.81;5036679;28;20040;-70
2023/08/27 05:55:36;;;;;;;12.95;9.00;;;;;;;13.18;100.00;100701.53;5040861;28;20111;-68
2023/08/27 05:58:03;;;;;;;13.80;10.02;;;;;;;13.27;100.00;100710.81;5037132;28;20384;-68
2023/08/27 06:00:29;;;;;;;12.52;10.48;;;;;;;13.16;100.00;100708.78;5038718;28;20037;-69
2023/08/27 06:02:54;;;;;;;14.13;10.75;;;;;;;13.32;100.00;100710.50;5051214;28;20536;-69
2023/08/27 06:05:19;;;;;;;12.80;10.32;;;;;;;13.27;100.00;100709.94;5039447;28;20033;-68
2023/08/27 06:07:45;;;;;;;12.50;9.30;;;;;;;13.24;100.00;100694.94;5039011;28;20053;-69
2023/08/27 06:10:11;;;;;;;12.68;9.65;;;;;;;13.29;100.00;100689.31;5043168;28;20222;-68
2023/08/27 06:12:36;;;;;;;10.15;8.48;;;;;;;13.10;100.00;100687.78;5044895;28;20035;-69
2023/08/27 06:15:04;;;;;;;11.30;8.25;;;;;;;12.91;100.00;100690.75;5046212;28;20032;-68
2023/08/27 06:17:29;;;;;;;9.55;7.38;;;;;;;12.90;100.00;100696.22;5035952;28;20029;-67
2023/08/27 06:19:55;;;;;;;9.68;7.90;;;;;;;12.84;100.00;100697.47;5040489;28;20091;-69
2023/08/27 06:22:20;;;;;;;10.98;8.05;;;;;;;12.88;100.00;100701.66;5044718;28;20044;-69
2023/08/27 06:24:46;;;;;;;10.77;9.20;;;;;;;13.05;100.00;100691.72;5043427;28;20028;-68
2023/08/27 06:27:14;;;;;;;15.02;9.13;;;;;;;13.18;100.00;100696.19;5039239;28;20458;-70
2023/08/27 06:29:42;;;;;;;12.70;9.00;;;;;;;13.39;100.00;100693.97;5042360;28;20043;-68
2023/08/27 06:32:07;;;;;;;10.88;9.77;;;;;;;13.68;100.00;100692.06;5038753;28;20021;-68
2023/08/27 06:34:33;;;;;;;12.80;9.32;;;;;;;13.83;100.00;100692.00;5041317;28;20032;-69
2023/08/27 06:36:58;;;;;;;10.48;8.68;;;;;;;13.84;100.00;100688.38;5035604;28;20093;-69
2023/08/27 06:39:23;;;;;;;12.45;8.73;;;;;;;14.04;100.00;100695.03;5057702;28;20063;-69
2023/08/27 06:41:49;;;;;;;10.70;8.35;;;;;;;14.15;100.00;100687.16;5040292;28;20059;-68
2023/08/27 06:44:15;;;;;;;9.15;7.20;;;;;;;14.15;100.00;100693.34;5045452;28;20060;-68
2023/08/27 06:46:44;;;;;;;7.88;6.28;;;;;;;14.10;100.00;100687.47;5046488;28;20074;-69
2023/08/27 06:49:09;;;;;;;7.45;6.20;;;;;;;14.18;100.00;100698.50;5037499;28;20032;-68
2023/08/27 06:51:34;;;;;;;6.47;5.57;;;;;;;14.23;100.00;100684.81;5035679;28;20389;-68
2023/08/27 06:54:00;;;;;;;6.97;5.30;;;;;;;14.27;100.00;100697.03;5040381;28;20547;-68
2023/08/27 06:56:26;;;;;;;7.10;5.43;;;;;;;14.17;100.00;100702.16;5037518;28;20037;-70
2023/08/27 06:58:51;;;;;;;7.03;5.30;;;;;;;14.27;100.00;100697.03;5039285;28;20032;-69
2023/08/27 07:01:17;;;;;;;6.32;4.90;;;;;;;14.28;100.00;100698.72;5040368;28;20554;-69
2023/08/27 07:03:42;;;;;;;8.00;5.45;;;;;;;14.26;100.00;100694.47;5044138;28;20021;-69
2023/08/27 07:06:09;;;;;;;6.68;4.82;;;;;;;14.10;100.00;100706.19;5043646;28;20047;-69
2023/08/27 07:08:35;;;;;;;6.03;5.07;;;;;;;14.05;100.00;100692.28;5035560;28;20495;-69
2023/08/27 07:11:02;;;;;;;12.43;6.35;;;;;;;14.24;100.00;100702.59;5035285;28;20106;-70
2023/08/27 07:13:28;;;;;;;6.63;5.55;;;;;;;14.49;100.00;100698.25;5036667;28;20495;-68
2023/08/27 07:15:53;;;;;;;7.28;5.60;;;;;;;14.55;100.00;100701.38;5046989;28;20116;-68
2023/08/27 07:18:19;;;;;;;10.98;5.85;;;;;;;14.81;100.00;100696.00;5038290;28;20108;-69
2023/08/27 07:20:44;;;;;;;8.02;5.22;;;;;;;14.83;100.00;100694.06;5031182;28;20044;-69
2023/08/27 07:23:09;;;;;;;8.50;5.50;;;;;;;15.06;100.00;100705.81;5038613;28;20048;-68
2023/08/27 07:25:36;;;;;;;10.27;5.97;;;;;;;15.48;100.00;100698.31;5036490;28;20021;-69
2023/08/27 07:28:02;;;;;;;7.57;5.05;;;;;;;15.74;100.00;100693.72;5044776;28;20033;-70
2023/08/27 07:30:27;;;;;;;6.05;4.90;;;;;;;16.17;100.00;100691.31;5039018;28;20029;-70
2023/08/27 07:32:52;;;;;;;7.22;5.40;;;;;;;16.60;100.00;100696.91;5037630;28;20028;-68
2023/08/27 07:35:18;;;;;;;6.53;5.05;;;;;;;16.67;100.00;100706.19;5046281;28;20017;-69
2023/08/27 07:37:44;;;;;;;8.15;4.65;;;;;;;16.76;100.00;100707.34;5040047;28;20527;-69
2023/08/27 07:40:10;;;;;;;5.30;4.07;;;;;;;17.09;100.00;100701.09;5043748;28;20163;-69
2023/08/27 07:42:35;;;;;;;7.15;4.78;;;;;;;17.42;100.00;100702.03;5057222;28;20052;-68
2023/08/27 07:45:02;;;;;;;6.35;4.55;;;;;;;17.65;100.00;100701.00;5038122;28;20142;-68
2023/08/27 07:47:27;;;;;;;5.55;4.55;;;;;;;18.06;100.00;100702.13;5041264;28;20033;-68
2023/08/27 07:49:53;;;;;;;6.43;4.53;;;;;;;18.21;100.00;100686.47;5039057;28;20087;-68
2023/08/27 07:52:18;;;;;;;4.93;4.07;;;;;;;18.46;100.00;100695.16;5037967;28;20120;-68
2023/08/27 07:54:43;;;;;;;6.20;3.92;;;;;;;18.84;100.00;100698.09;5035455;28;20029;-69
2023/08/27 07:57:09;;;;;;;7.55;4.38;;;;;;;19.33;100.00;100695.56;5038180;28;20069;-69
2023/08/27 07:59:35;;;;;;;5.38;3.83;;;;;;;19.12;100.00;100695.66;5041954;28;20025;-68
2023/08/27 08:02:00;;;;;;;7.15;3.65;;;;;;;19.52;100.00;100700.16;5040159;28;20166;-68
2023/08/27 08:04:26;;;;;;;5.80;3.33;;;;;;;19.80;100.00;100693.13;5045140;28;20033;-68
2023/08/27 08:06:51;;;;;;;5.03;3.30;;;;;;;19.77;100.00;100706.91;5041694;28;20029;-69
2023/08/27 08:09:16;;;;;;;5.90;3.40;;;;;;;20.08;100.00;100696.81;5044249;28;20668;-68
2023/08/27 08:11:42;;;;;;;6.03;3.40;;;;;;;19.95;100.00;100690.88;5043812;28;20593;-70
2023/08/27 08:14:07;;;;;;;7.15;3.25;;;;;;;20.00;100.00;100694.84;5042686;28;20502;-70
2023/08/27 08:16:32;;;;;;;5.35;3.50;;;;;;;20.66;100.00;100699.47;5044354;28;20107;-69
2023/08/27 08:18:58;;;;;;;4.65;3.20;;;;;;;20.32;100.00;100705.34;5050393;28;20159;-69
2023/08/27 08:21:23;;;;;;;6.30;2.90;;;;;;;20.58;97.71;100702.06;5041597;28;20040;-69
2023/08/27 08:23:48;;;;;;;5.05;3.10;;;;;;;20.95;95.84;100704.78;5044101;28;20079;-69
2023/08/27 08:26:14;;;;;;;6.43;3.10;;;;;;;21.30;92.64;100701.31;5044664;28;20263;-68
2023/08/27 08:28:39;;;;;;;5.47;3.10;;;;;;;21.52;92.51;100710.06;5048280;28;20044;-70
2023/08/27 08:31:04;;;;;;;5.13;2.90;;;;;;;21.74;90.39;100708.81;5057588;28;20541;-69
2023/08/27 08:33:30;;;;;;;8.32;3.30;;;;;;;22.03;90.21;100716.69;5045772;28;20021;-69
2023/08/27 08:35:55;;;;;;;4.22;2.60;;;;;;;22.52;87.09;100723.41;5042977;28;20029;-70
2023/08/27 08:38:21;;;;;;;3.92;2.53;;;;;;;22.95;83.57;100723.53;5041490;28;20578;-70
2023/08/27 08:40:51;;;;;;;5.00;2.50;;;;;;;23.60;80.58;100721.09;5050360;28;20471;-69
2023/08/27 08:43:40;;;;;;;4.18;2.17;;;;;;;23.43;83.05;100727.50;5041801;28;20476;-69
2023/08/27 08:46:06;;;;;;;5.97;2.20;;;;;;;22.62;78.37;100726.88;5036255;28;20052;-69
2023/08/27 08:48:38;;;;;;;4.32;2.03;;;;;;;22.86;80.48;100728.88;5033783;28;20192;-70
2023/08/27 08:51:05;;;;;;;5.65;2.63;;;;;;;21.98;77.59;100719.00;5031740;28;20186;-68
2023/08/27 08:53:33;;;;;;;3.38;1.90;;;;;;;21.08;84.10;100715.25;5038778;28;20029;-69
2023/08/27 08:56:02;;;;;;;5.03;2.10;;;;;;;21.25;84.85;100716.31;5021809;28;20125;-69
2023/08/27 08:58:34;;;;;;;3.58;2.10;;;;;;;22.27;81.45;100711.50;5033245;28;20539;-68
2023/08/27 09:01:01;;;;;;;4.68;2.22;;;;;;;22.12;76.58;100704.94;5020064;28;20045;-68
2023/08/27 09:03:30;;;;;;;4.10;2.05;;;;;;;22.79;77.31;100711.56;5026413;28;20094;-68
2023/08/27 09:05:56;;;;;;;2.53;1.70;;;;;;;22.19;75.14;100703.31;5030076;28;20120;-71
2023/08/27 09:08:22;;;;;;;4.20;1.95;;;;;;;21.63;77.83;100704.44;5033952;28;20111;-70
2023/08/27 09:10:49;;;;;;;5.10;1.90;;;;;;;22.35;76.22;100700.72;5034842;28;20041;-70
2023/08/27 09:13:21;;;;;;;5.30;2.13;;;;;;;23.54;75.18;100690.03;5033090;28;20042;-70
2023/08/27 09:15:50;;;;;;;3.63;1.90;;;;;;;24.49;69.14;100690.44;5029127;28;20029;-70
2023/08/27 09:18:16;;;;;;;2.97;1.90;;;;;;;23.29;68.21;100690.97;5031861;28;20037;-70
2023/08/27 09:20:45;;;;;;;4.15;1.98;;;;;;;22.48;72.71;100699.47;5028279;28;20056;-71
2023/08/27 09:23:12;;;;;;;3.95;1.70;;;;;;;23.43;68.93;100684.03;5035847;28;20044;-71
2023/08/27 09:25:38;;;;;;;3.97;2.50;;;;;;;24.60;69.07;100689.25;5041260;28;20135;-69
2023/08/27 09:28:05;;;;;;;3.50;1.92;;;;;;;25.82;61.86;100685.19;5041965;28;20029;-69
2023/08/27 09:30:31;;;;;;;4.25;1.75;;;;;;;26.81;60.16;100681.44;5053487;28;20037;-70
2023/08/27 09:32:57;;;;;;;4.28;1.70;;;;;;;26.67;54.21;100676.81;5041684;28;20164;-70
2023/08/27 09:35:23;;;;;;;3.90;1.70;;;;;;;27.00;51.89;100687.34;5036562;28;20149;-70
2023/08/27 09:37:48;;;;;;;3.85;1.88;;;;;;;27.61;48.81;100677.03;5043707;28;20027;-70
2023/08/27 09:40:16;;;;;;;3.20;1.80;;;;;;;27.75;47.82;100678.03;5041228;28;20043;-70
2023/08/27 09:42:43;;;;;;;2.75;1.42;;;;;;;27.50;46.20;100674.78;5042963;28;20029;-70
2023/08/27 09:45:08;;;;;;;4.47;1.60;;;;;;;27.67;46.74;100672.66;5037824;28;20033;-69
2023/08/27 09:47:36;;;;;;;2.75;1.58;;;;;;;28.39;45.31;100672.56;5039295;28;20550;-70
2023/08/27 09:50:07;;;;;;;3.30;1.35;;;;;;;28.07;45.62;100663.00;5035100;28;20098;-72
2023/08/27 09:52:33;;;;;;;3.63;1.52;;;;;;;26.48;45.91;100675.47;5038018;28;20052;-72
2023/08/27 09:54:58;;;;;;;2.78;1.30;;;;;;;24.83;49.38;100673.91;5043285;28;20079;-69
2023/08/27 09:57:24;;;;;;;5.10;1.98;;;;;;;23.90;52.22;100650.84;5043434;28;20051;-69
2023/08/27 09:59:50;;;;;;;3.55;1.30;;;;;;;24.42;52.11;100656.81;5042917;28;20021;-70
2023/08/27 10:02:16;;;;;;;4.88;1.50;;;;;;;24.49;50.46;100660.53;5041969;28;20029;-70
2023/08/27 10:04:56;;;;;;;1.95;1.30;;;;;;;23.31;55.06;100665.31;5040615;28;20059;-72
2023/08/27 10:07:22;;;;;;;3.13;1.40;;;;;;;22.22;56.05;100664.19;5040294;28;20059;-70
2023/08/27 10:09:51;;;;;;;2.95;1.48;;;;;;;21.58;58.62;100660.72;5036855;28;20028;-71
2023/08/27 10:12:18;;;;;;;4.75;1.90;;;;;;;22.00;60.59;100663.66;5038925;28;20032;-70
2023/08/27 10:14:44;;;;;;;3.90;1.55;;;;;;;22.55;58.20;100684.25;5043118;28;20028;-71
2023/08/27 10:17:10;;;;;;;5.32;1.52;;;;;;;24.59;54.98;100653.03;5055472;28;20029;-71
2023/08/27 10:19:36;;;;;;;5.75;1.60;;;;;;;25.75;49.43;100674.16;5037849;28;20020;-70
2023/08/27 10:22:06;;;;;;;4.38;1.50;;;;;;;25.72;48.68;100669.06;5045803;28;20480;-70
2023/08/27 10:24:33;;;;;;;2.90;1.17;;;;;;;24.54;51.34;100677.22;5041494;28;20120;-71
2023/08/27 10:27:06;;;;;;;3.70;1.50;;;;;;;23.56;54.53;100676.25;5038401;28;20297;-71
2023/08/27 10:29:34;;;;;;;3.05;1.55;;;;;;;22.50;56.34;100673.91;5039369;28;20665;-69
2023/08/27 10:31:59;;;;;;;6.05;1.90;;;;;;;21.23;62.33;100689.38;5037142;28;20032;-68
2023/08/27 10:34:28;;;;;;;2.85;1.20;;;;;;;19.99;69.72;100682.31;5037001;28;20112;-71
2023/08/27 10:36:56;;;;;;;6.07;2.05;;;;;;;18.50;85.83;100681.28;5040061;28;20044;-70
2023/08/27 10:39:26;;;;;;;3.50;1.42;;;;;;;17.39;95.72;100680.78;5040671;28;20126;-68
2023/08/27 10:41:51;;;;;;;4.32;1.80;;;;;;;16.74;100.00;100676.19;5041551;28;20025;-69
2023/08/27 10:44:20;;;;;;;3.58;1.90;;;;;;;16.97;100.00;100677.03;5036776;28;20407;-70
2023/08/27 10:47:21;;;;;;;3.88;2.00;;;;;;;19.12;100.00;100666.81;5038694;28;20029;-70
2023/08/27 10:49:51;;;;;;;3.45;1.70;;;;;;;21.13;84.47;100673.22;5024037;28;20060;-70
2023/08/27 10:52:18;;;;;;;3.35;1.50;;;;;;;22.42;78.84;100670.28;5032084;28;20077;-70
2023/08/27 10:54:47;;;;;;;3.40;1.58;;;;;;;23.80;72.21;100668.19;5029647;28;20025;-69
2023/08/27 10:57:22;;;;;;;2.72;1.42;;;;;;;24.80;64.62;100668.81;5024447;28;20033;-71
2023/08/27 10:59:48;;;;;;;3.60;1.45;;;;;;;26.17;61.40;100664.66;5031015;28;20029;-70
2023/08/27 11:02:16;;;;;;;3.38;1.73;;;;;;;27.90;54.81;100656.09;5022426;28;20033;-70
2023/08/27 11:04:43;;;;;;;2.42;1.40;;;;;;;29.51;47.90;100652.31;5026019;28;20049;-71
2023/08/27 11:07:17;;;;;;;2.97;1.15;;;;;;;27.62;48.28;100653.25;5027970;28;20064;-69
2023/08/27 11:09:47;;;;;;;1.38;1.20;;;;;;;25.19;51.85;100668.00;5027795;28;20450;-71
2023/08/27 11:12:34;;;;;;;3.17;1.40;;;;;;;24.51;55.86;100665.81;5030291;28;20029;-71
2023/08/27 11:15:14;;;;;;;2.25;1.20;;;;;;;23.71;56.52;100674.63;5015425;28;20111;-72